sensor_id;sensor_type;location;lat;lon;timestamp;P1;durP1;ratioP1;P2;durP2;ratioP2
335;SDS011;156;48.738;9.228;2024-03-23T00:53:56;1.60;;;1.50;;
335;SDS011;156;48.738;9.228;2024-03-23T00:56:23;0.55;;;0.47;;
335;SDS011;156;48.738;9.228;2024-03-23T00:58:51;0.60;;;0.50;;
335;SDS011;156;48.738;9.228;2024-03-23T01:01:17;1.23;;;0.98;;
335;SDS011;156;48.738;9.228;2024-03-23T01:03:44;1.00;;;0.93;;
335;SDS011;156;48.738;9.228;2024-03-23T01:06:10;1.53;;;1.43;;
335;SDS011;156;48.738;9.228;2024-03-23T01:08:37;1.20;;;1.10;;
335;SDS011;156;48.738;9.228;2024-03-23T01:11:03;1.40;;;0.70;;
335;SDS011;156;48.738;9.228;2024-03-23T01:13:30;1.50;;;1.25;;
335;SDS011;156;48.738;9.228;2024-03-23T01:15:57;0.98;;;0.98;;
335;SDS011;156;48.738;9.228;2024-03-23T01:18:24;1.23;;;0.98;;
335;SDS011;156;48.738;9.228;2024-03-23T01:20:51;0.50;;;0.40;;
335;SDS011;156;48.738;9.228;2024-03-23T01:23:18;0.60;;;0.50;;
335;SDS011;156;48.738;9.228;2024-03-23T01:25:51;1.23;;;0.70;;
335;SDS011;156;48.738;9.228;2024-03-23T01:28:18;0.50;;;0.40;;
335;SDS011;156;48.738;9.228;2024-03-23T01:30:44;1.83;;;1.60;;
335;SDS011;156;48.738;9.228;2024-03-23T01:33:12;1.08;;;1.05;;
335;SDS011;156;48.738;9.228;2024-03-23T01:35:38;1.13;;;1.08;;
335;SDS011;156;48.738;9.228;2024-03-23T01:38:05;1.20;;;1.10;;
335;SDS011;156;48.738;9.228;2024-03-23T01:40:31;2.47;;;2.27;;
335;SDS011;156;48.738;9.228;2024-03-23T01:42:59;2.60;;;2.40;;
335;SDS011;156;48.738;9.228;2024-03-23T01:45:29;1.63;;;1.02;;
335;SDS011;156;48.738;9.228;2024-03-23T01:47:56;1.55;;;1.20;;
335;SDS011;156;48.738;9.228;2024-03-23T01:50:24;0.60;;;0.60;;
335;SDS011;156;48.738;9.228;2024-03-23T01:52:52;0.70;;;0.50;;
335;SDS011;156;48.738;9.228;2024-03-23T01:55:18;1.98;;;1.83;;
335;SDS011;156;48.738;9.228;2024-03-23T01:57:46;0.88;;;0.80;;
335;SDS011;156;48.738;9.228;2024-03-23T02:00:12;0.60;;;0.50;;
335;SDS011;156;48.738;9.228;2024-03-23T02:02:43;1.70;;;1.02;;
335;SDS011;156;48.738;9.228;2024-03-23T02:05:09;0.50;;;0.40;;
335;SDS011;156;48.738;9.228;2024-03-23T02:07:38;1.92;;;1.83;;
335;SDS011;156;48.738;9.228;2024-03-23T02:10:05;0.80;;;0.70;;
335;SDS011;156;48.738;9.228;2024-03-23T02:12:33;1.02;;;0.70;;
335;SDS011;156;48.738;9.228;2024-03-23T02:14:59;1.30;;;1.02;;
335;SDS011;156;48.738;9.228;2024-03-23T02:17:28;4.05;;;1.00;;
335;SDS011;156;48.738;9.228;2024-03-23T02:19:55;1.05;;;1.00;;
335;SDS011;156;48.738;9.228;2024-03-23T02:22:22;0.77;;;0.70;;
335;SDS011;156;48.738;9.228;2024-03-23T02:24:49;0.80;;;0.75;;
335;SDS011;156;48.738;9.228;2024-03-23T02:27:16;0.82;;;0.73;;
335;SDS011;156;48.738;9.228;2024-03-23T02:29:42;0.50;;;0.50;;
335;SDS011;156;48.738;9.228;2024-03-23T02:32:09;1.48;;;1.38;;
335;SDS011;156;48.738;9.228;2024-03-23T02:34:35;1.37;;;1.00;;
335;SDS011;156;48.738;9.228;2024-03-23T02:37:09;1.20;;;1.10;;
335;SDS011;156;48.738;9.228;2024-03-23T02:39:36;1.23;;;0.98;;
335;SDS011;156;48.738;9.228;2024-03-23T02:42:04;2.42;;;1.70;;
335;SDS011;156;48.738;9.228;2024-03-23T02:44:31;1.42;;;1.00;;
335;SDS011;156;48.738;9.228;2024-03-23T02:46:58;1.10;;;1.02;;
335;SDS011;156;48.738;9.228;2024-03-23T02:49:23;2.10;;;1.70;;
335;SDS011;156;48.738;9.228;2024-03-23T02:51:51;0.93;;;0.85;;
335;SDS011;156;48.738;9.228;2024-03-23T02:54:17;1.13;;;0.77;;
335;SDS011;156;48.738;9.228;2024-03-23T02:56:44;1.30;;;1.20;;
335;SDS011;156;48.738;9.228;2024-03-23T02:59:13;1.98;;;1.85;;
335;SDS011;156;48.738;9.228;2024-03-23T03:01:39;2.10;;;1.95;;
335;SDS011;156;48.738;9.228;2024-03-23T03:04:05;1.23;;;1.13;;
335;SDS011;156;48.738;9.228;2024-03-23T03:06:33;0.90;;;0.75;;
335;SDS011;156;48.738;9.228;2024-03-23T03:08:59;3.30;;;1.83;;
335;SDS011;156;48.738;9.228;2024-03-23T03:11:26;1.58;;;1.48;;
335;SDS011;156;48.738;9.228;2024-03-23T03:13:52;1.37;;;1.27;;
335;SDS011;156;48.738;9.228;2024-03-23T03:16:20;1.35;;;1.27;;
335;SDS011;156;48.738;9.228;2024-03-23T03:18:46;1.13;;;0.90;;
335;SDS011;156;48.738;9.228;2024-03-23T03:21:14;1.50;;;1.40;;
335;SDS011;156;48.738;9.228;2024-03-23T03:23:41;1.67;;;1.58;;
335;SDS011;156;48.738;9.228;2024-03-23T03:26:09;0.90;;;0.80;;
335;SDS011;156;48.738;9.228;2024-03-23T03:28:35;2.77;;;1.03;;
335;SDS011;156;48.738;9.228;2024-03-23T03:31:02;0.80;;;0.75;;
335;SDS011;156;48.738;9.228;2024-03-23T03:33:30;5.88;;;1.52;;
335;SDS011;156;48.738;9.228;2024-03-23T03:35:57;1.13;;;1.02;;
335;SDS011;156;48.738;9.228;2024-03-23T03:38:23;1.97;;;1.03;;
335;SDS011;156;48.738;9.228;2024-03-23T03:40:49;1.13;;;1.02;;
335;SDS011;156;48.738;9.228;2024-03-23T03:43:15;1.80;;;1.70;;
335;SDS011;156;48.738;9.228;2024-03-23T03:45:42;0.50;;;0.50;;
335;SDS011;156;48.738;9.228;2024-03-23T03:48:17;0.70;;;0.60;;
335;SDS011;156;48.738;9.228;2024-03-23T03:50:45;0.93;;;0.90;;
335;SDS011;156;48.738;9.228;2024-03-23T03:53:11;2.10;;;1.60;;
335;SDS011;156;48.738;9.228;2024-03-23T03:55:38;1.00;;;0.98;;
335;SDS011;156;48.738;9.228;2024-03-23T03:58:04;0.60;;;0.60;;
335;SDS011;156;48.738;9.228;2024-03-23T04:00:31;1.10;;;1.00;;
335;SDS011;156;48.738;9.228;2024-03-23T04:02:57;0.85;;;0.75;;
335;SDS011;156;48.738;9.228;2024-03-23T04:05:25;1.00;;;0.90;;
335;SDS011;156;48.738;9.228;2024-03-23T04:07:55;0.55;;;0.52;;
335;SDS011;156;48.738;9.228;2024-03-23T04:10:22;1.10;;;1.00;;
335;SDS011;156;48.738;9.228;2024-03-23T04:12:48;1.03;;;0.93;;
335;SDS011;156;48.738;9.228;2024-03-23T04:15:15;9.00;;;2.00;;
335;SDS011;156;48.738;9.228;2024-03-23T04:17:41;1.70;;;1.20;;
335;SDS011;156;48.738;9.228;2024-03-23T04:20:08;1.42;;;1.33;;
335;SDS011;156;48.738;9.228;2024-03-23T04:22:36;8.07;;;4.72;;
335;SDS011;156;48.738;9.228;2024-03-23T04:25:04;1.02;;;1.00;;
335;SDS011;156;48.738;9.228;2024-03-23T04:27:34;1.40;;;1.30;;
335;SDS011;156;48.738;9.228;2024-03-23T04:30:02;0.85;;;0.75;;
335;SDS011;156;48.738;9.228;2024-03-23T04:32:34;1.50;;;1.40;;
335;SDS011;156;48.738;9.228;2024-03-23T04:35:01;1.90;;;1.63;;
335;SDS011;156;48.738;9.228;2024-03-23T04:37:31;1.05;;;0.95;;
335;SDS011;156;48.738;9.228;2024-03-23T04:39:59;2.05;;;1.90;;
335;SDS011;156;48.738;9.228;2024-03-23T04:42:27;0.98;;;0.90;;
335;SDS011;156;48.738;9.228;2024-03-23T04:44:54;0.77;;;0.70;;
335;SDS011;156;48.738;9.228;2024-03-23T04:47:21;1.95;;;1.70;;
335;SDS011;156;48.738;9.228;2024-03-23T04:49:48;2.15;;;1.95;;
335;SDS011;156;48.738;9.228;2024-03-23T04:52:15;1.80;;;1.70;;
335;SDS011;156;48.738;9.228;2024-03-23T04:54:42;1.48;;;1.38;;
335;SDS011;156;48.738;9.228;2024-03-23T04:57:10;4.25;;;3.85;;
335;SDS011;156;48.738;9.228;2024-03-23T04:59:38;2.55;;;2.35;;
335;SDS011;156;48.738;9.228;2024-03-23T05:02:04;8.20;;;4.85;;
335;SDS011;156;48.738;9.228;2024-03-23T05:04:31;18.60;;;17.70;;
335;SDS011;156;48.738;9.228;2024-03-23T05:06:57;18.60;;;17.70;;
335;SDS011;156;48.738;9.228;2024-03-23T05:09:24;13.75;;;13.05;;
335;SDS011;156;48.738;9.228;2024-03-23T05:11:55;13.55;;;12.85;;
335;SDS011;156;48.738;9.228;2024-03-23T05:14:22;8.52;;;8.05;;
335;SDS011;156;48.738;9.228;2024-03-23T05:16:51;10.45;;;9.88;;
335;SDS011;156;48.738;9.228;2024-03-23T05:19:18;9.77;;;9.27;;
335;SDS011;156;48.738;9.228;2024-03-23T05:21:44;11.75;;;11.15;;
335;SDS011;156;48.738;9.228;2024-03-23T05:24:11;11.30;;;10.23;;
335;SDS011;156;48.738;9.228;2024-03-23T05:26:37;15.45;;;13.57;;
335;SDS011;156;48.738;9.228;2024-03-23T05:29:04;15.05;;;12.05;;
335;SDS011;156;48.738;9.228;2024-03-23T05:31:38;16.98;;;14.00;;
335;SDS011;156;48.738;9.228;2024-03-23T05:34:08;10.50;;;9.07;;
335;SDS011;156;48.738;9.228;2024-03-23T05:36:34;15.13;;;14.18;;
335;SDS011;156;48.738;9.228;2024-03-23T05:39:01;17.92;;;16.88;;
335;SDS011;156;48.738;9.228;2024-03-23T05:41:27;13.40;;;10.20;;
335;SDS011;156;48.738;9.228;2024-03-23T05:43:54;16.98;;;12.10;;
335;SDS011;156;48.738;9.228;2024-03-23T05:46:20;6.60;;;6.23;;
335;SDS011;156;48.738;9.228;2024-03-23T05:48:47;13.35;;;12.00;;
335;SDS011;156;48.738;9.228;2024-03-23T05:51:14;18.25;;;11.57;;
335;SDS011;156;48.738;9.228;2024-03-23T05:53:41;8.38;;;7.93;;
335;SDS011;156;48.738;9.228;2024-03-23T05:56:10;10.95;;;10.30;;
335;SDS011;156;48.738;9.228;2024-03-23T05:58:38;15.02;;;12.48;;
335;SDS011;156;48.738;9.228;2024-03-23T06:01:04;10.88;;;10.27;;
335;SDS011;156;48.738;9.228;2024-03-23T06:03:31;14.52;;;13.80;;
335;SDS011;156;48.738;9.228;2024-03-23T06:05:57;13.32;;;12.55;;
335;SDS011;156;48.738;9.228;2024-03-23T06:08:25;10.40;;;9.43;;
335;SDS011;156;48.738;9.228;2024-03-23T06:10:51;11.35;;;10.75;;
335;SDS011;156;48.738;9.228;2024-03-23T06:13:18;14.00;;;13.30;;
335;SDS011;156;48.738;9.228;2024-03-23T06:15:44;8.95;;;8.45;;
335;SDS011;156;48.738;9.228;2024-03-23T06:18:11;9.82;;;9.32;;
335;SDS011;156;48.738;9.228;2024-03-23T06:20:37;8.80;;;8.30;;
335;SDS011;156;48.738;9.228;2024-03-23T06:23:04;7.25;;;6.85;;
335;SDS011;156;48.738;9.228;2024-03-23T06:25:31;6.60;;;6.22;;
335;SDS011;156;48.738;9.228;2024-03-23T06:27:58;6.80;;;6.40;;
335;SDS011;156;48.738;9.228;2024-03-23T06:30:26;8.82;;;8.32;;
335;SDS011;156;48.738;9.228;2024-03-23T06:32:54;6.80;;;6.40;;
335;SDS011;156;48.738;9.228;2024-03-23T06:35:20;5.35;;;5.05;;
335;SDS011;156;48.738;9.228;2024-03-23T06:37:47;5.32;;;5.03;;
335;SDS011;156;48.738;9.228;2024-03-23T06:40:13;4.53;;;4.23;;
335;SDS011;156;48.738;9.228;2024-03-23T06:42:42;5.40;;;5.10;;
335;SDS011;156;48.738;9.228;2024-03-23T06:45:08;4.63;;;4.32;;
335;SDS011;156;48.738;9.228;2024-03-23T06:47:35;4.30;;;4.00;;
335;SDS011;156;48.738;9.228;2024-03-23T06:50:02;3.95;;;3.75;;
335;SDS011;156;48.738;9.228;2024-03-23T06:52:30;3.53;;;3.33;;
335;SDS011;156;48.738;9.228;2024-03-23T06:54:56;3.92;;;3.72;;
335;SDS011;156;48.738;9.228;2024-03-23T06:57:23;3.80;;;3.60;;
335;SDS011;156;48.738;9.228;2024-03-23T06:59:51;3.40;;;3.20;;
335;SDS011;156;48.738;9.228;2024-03-23T07:02:18;3.88;;;3.67;;
335;SDS011;156;48.738;9.228;2024-03-23T07:04:44;3.78;;;3.58;;
335;SDS011;156;48.738;9.228;2024-03-23T07:07:12;4.00;;;3.80;;
335;SDS011;156;48.738;9.228;2024-03-23T07:09:39;3.67;;;3.47;;
335;SDS011;156;48.738;9.228;2024-03-23T07:12:06;3.70;;;3.50;;
335;SDS011;156;48.738;9.228;2024-03-23T07:14:32;3.38;;;3.17;;
335;SDS011;156;48.738;9.228;2024-03-23T07:17:00;3.55;;;3.35;;
335;SDS011;156;48.738;9.228;2024-03-23T07:19:26;3.30;;;3.10;;
335;SDS011;156;48.738;9.228;2024-03-23T07:21:53;3.22;;;3.03;;
335;SDS011;156;48.738;9.228;2024-03-23T07:24:19;3.10;;;2.90;;
335;SDS011;156;48.738;9.228;2024-03-23T07:26:46;3.33;;;3.13;;
335;SDS011;156;48.738;9.228;2024-03-23T07:29:13;3.33;;;3.13;;
335;SDS011;156;48.738;9.228;2024-03-23T07:31:39;3.10;;;2.90;;
335;SDS011;156;48.738;9.228;2024-03-23T07:34:11;3.20;;;3.00;;
335;SDS011;156;48.738;9.228;2024-03-23T07:36:38;4.03;;;3.83;;
335;SDS011;156;48.738;9.228;2024-03-23T07:39:04;3.70;;;3.50;;
335;SDS011;156;48.738;9.228;2024-03-23T07:41:33;3.45;;;3.25;;
335;SDS011;156;48.738;9.228;2024-03-23T07:44:00;3.33;;;3.13;;
335;SDS011;156;48.738;9.228;2024-03-23T07:46:29;3.00;;;2.80;;
335;SDS011;156;48.738;9.228;2024-03-23T07:48:55;3.60;;;3.40;;
335;SDS011;156;48.738;9.228;2024-03-23T07:51:23;3.35;;;3.15;;
335;SDS011;156;48.738;9.228;2024-03-23T07:53:50;3.38;;;3.17;;
335;SDS011;156;48.738;9.228;2024-03-23T07:56:17;3.65;;;3.45;;
335;SDS011;156;48.738;9.228;2024-03-23T07:58:44;3.30;;;3.10;;
335;SDS011;156;48.738;9.228;2024-03-23T08:01:12;3.40;;;3.20;;
335;SDS011;156;48.738;9.228;2024-03-23T08:03:40;3.45;;;3.25;;
335;SDS011;156;48.738;9.228;2024-03-23T08:06:08;3.88;;;3.67;;
335;SDS011;156;48.738;9.228;2024-03-23T08:08:36;3.90;;;3.70;;
335;SDS011;156;48.738;9.228;2024-03-23T08:11:03;3.70;;;3.50;;
335;SDS011;156;48.738;9.228;2024-03-23T08:13:30;5.03;;;4.72;;
335;SDS011;156;48.738;9.228;2024-03-23T08:15:57;7.40;;;7.00;;
335;SDS011;156;48.738;9.228;2024-03-23T08:18:24;5.15;;;4.85;;
335;SDS011;156;48.738;9.228;2024-03-23T08:20:56;3.80;;;3.60;;
335;SDS011;156;48.738;9.228;2024-03-23T08:23:24;3.03;;;2.83;;
335;SDS011;156;48.738;9.228;2024-03-23T08:25:51;2.40;;;2.20;;
335;SDS011;156;48.738;9.228;2024-03-23T08:28:18;3.00;;;2.80;;
335;SDS011;156;48.738;9.228;2024-03-23T08:30:44;2.73;;;2.53;;
335;SDS011;156;48.738;9.228;2024-03-23T08:33:14;2.90;;;2.70;;
335;SDS011;156;48.738;9.228;2024-03-23T08:35:40;3.10;;;2.90;;
335;SDS011;156;48.738;9.228;2024-03-23T08:38:07;3.08;;;2.88;;
335;SDS011;156;48.738;9.228;2024-03-23T08:40:33;3.07;;;2.87;;
335;SDS011;156;48.738;9.228;2024-03-23T08:43:02;2.53;;;2.33;;
335;SDS011;156;48.738;9.228;2024-03-23T08:45:28;2.72;;;2.53;;
335;SDS011;156;48.738;9.228;2024-03-23T08:47:55;3.10;;;2.90;;
335;SDS011;156;48.738;9.228;2024-03-23T08:50:20;3.40;;;3.20;;
335;SDS011;156;48.738;9.228;2024-03-23T08:52:48;2.90;;;2.70;;
335;SDS011;156;48.738;9.228;2024-03-23T08:55:16;3.22;;;3.03;;
335;SDS011;156;48.738;9.228;2024-03-23T08:57:43;3.25;;;3.05;;
335;SDS011;156;48.738;9.228;2024-03-23T09:00:11;3.00;;;2.80;;
335;SDS011;156;48.738;9.228;2024-03-23T09:02:39;3.42;;;3.22;;
335;SDS011;156;48.738;9.228;2024-03-23T09:05:07;2.63;;;2.42;;
335;SDS011;156;48.738;9.228;2024-03-23T09:07:34;2.85;;;2.65;;
335;SDS011;156;48.738;9.228;2024-03-23T09:10:00;3.03;;;2.83;;
335;SDS011;156;48.738;9.228;2024-03-23T09:12:27;2.60;;;2.40;;
335;SDS011;156;48.738;9.228;2024-03-23T09:14:53;3.30;;;3.10;;
335;SDS011;156;48.738;9.228;2024-03-23T09:17:21;2.90;;;2.70;;
335;SDS011;156;48.738;9.228;2024-03-23T09:19:47;2.90;;;2.70;;
335;SDS011;156;48.738;9.228;2024-03-23T09:22:14;3.92;;;3.75;;
335;SDS011;156;48.738;9.228;2024-03-23T09:24:40;3.53;;;2.45;;
335;SDS011;156;48.738;9.228;2024-03-23T09:27:07;3.10;;;2.90;;
335;SDS011;156;48.738;9.228;2024-03-23T09:29:33;2.78;;;2.50;;
335;SDS011;156;48.738;9.228;2024-03-23T09:32:01;4.90;;;2.75;;
335;SDS011;156;48.738;9.228;2024-03-23T09:34:29;2.95;;;2.00;;
335;SDS011;156;48.738;9.228;2024-03-23T09:36:55;2.90;;;2.70;;
335;SDS011;156;48.738;9.228;2024-03-23T09:39:21;1.90;;;1.80;;
335;SDS011;156;48.738;9.228;2024-03-23T09:41:50;2.40;;;2.20;;
335;SDS011;156;48.738;9.228;2024-03-23T09:44:21;1.98;;;1.90;;
335;SDS011;156;48.738;9.228;2024-03-23T09:46:48;8.63;;;2.42;;
335;SDS011;156;48.738;9.228;2024-03-23T09:49:15;9.13;;;2.70;;
335;SDS011;156;48.738;9.228;2024-03-23T09:51:43;5.45;;;2.30;;
335;SDS011;156;48.738;9.228;2024-03-23T09:54:09;2.78;;;2.20;;
335;SDS011;156;48.738;9.228;2024-03-23T09:56:36;3.92;;;3.40;;
335;SDS011;156;48.738;9.228;2024-03-23T09:59:02;8.43;;;3.63;;
335;SDS011;156;48.738;9.228;2024-03-23T10:01:30;9.50;;;2.50;;
335;SDS011;156;48.738;9.228;2024-03-23T10:03:56;4.75;;;3.17;;
335;SDS011;156;48.738;9.228;2024-03-23T10:06:25;3.53;;;1.90;;
335;SDS011;156;48.738;9.228;2024-03-23T10:08:53;3.08;;;2.80;;
335;SDS011;156;48.738;9.228;2024-03-23T10:11:20;4.10;;;2.85;;
335;SDS011;156;48.738;9.228;2024-03-23T10:13:46;1.23;;;1.13;;
335;SDS011;156;48.738;9.228;2024-03-23T10:16:23;3.92;;;3.72;;
335;SDS011;156;48.738;9.228;2024-03-23T10:18:55;1.58;;;1.05;;
335;SDS011;156;48.738;9.228;2024-03-23T10:21:22;4.45;;;2.42;;
335;SDS011;156;48.738;9.228;2024-03-23T10:23:47;8.45;;;2.63;;
335;SDS011;156;48.738;9.228;2024-03-23T10:26:19;7.28;;;1.83;;
335;SDS011;156;48.738;9.228;2024-03-23T10:28:56;6.18;;;2.83;;
335;SDS011;156;48.738;9.228;2024-03-23T10:31:26;5.28;;;2.20;;
335;SDS011;156;48.738;9.228;2024-03-23T10:33:53;18.60;;;3.85;;
335;SDS011;156;48.738;9.228;2024-03-23T10:36:20;2.88;;;2.20;;
335;SDS011;156;48.738;9.228;2024-03-23T10:38:47;7.70;;;3.85;;
335;SDS011;156;48.738;9.228;2024-03-23T10:41:15;9.65;;;3.75;;
335;SDS011;156;48.738;9.228;2024-03-23T10:43:43;4.25;;;2.88;;
335;SDS011;156;48.738;9.228;2024-03-23T10:46:12;2.88;;;1.63;;
335;SDS011;156;48.738;9.228;2024-03-23T10:48:38;3.15;;;1.73;;
335;SDS011;156;48.738;9.228;2024-03-23T10:51:05;2.58;;;2.22;;
335;SDS011;156;48.738;9.228;2024-03-23T10:53:33;2.85;;;1.73;;
335;SDS011;156;48.738;9.228;2024-03-23T10:56:02;6.30;;;2.25;;
335;SDS011;156;48.738;9.228;2024-03-23T10:58:30;4.13;;;1.92;;
335;SDS011;156;48.738;9.228;2024-03-23T11:01:00;4.53;;;3.80;;
335;SDS011;156;48.738;9.228;2024-03-23T11:03:31;2.72;;;2.35;;
335;SDS011;156;48.738;9.228;2024-03-23T11:05:59;6.95;;;6.55;;
335;SDS011;156;48.738;9.228;2024-03-23T11:08:32;8.77;;;8.27;;
335;SDS011;156;48.738;9.228;2024-03-23T11:11:19;10.52;;;9.98;;
335;SDS011;156;48.738;9.228;2024-03-23T11:13:47;7.75;;;7.35;;
335;SDS011;156;48.738;9.228;2024-03-23T11:16:17;5.10;;;4.80;;
335;SDS011;156;48.738;9.228;2024-03-23T11:18:47;5.70;;;5.40;;
335;SDS011;156;48.738;9.228;2024-03-23T11:24:13;3.30;;;3.10;;
335;SDS011;156;48.738;9.228;2024-03-23T11:26:40;4.80;;;4.50;;
335;SDS011;156;48.738;9.228;2024-03-23T11:29:09;3.80;;;3.60;;
335;SDS011;156;48.738;9.228;2024-03-23T11:31:37;3.08;;;2.88;;
335;SDS011;156;48.738;9.228;2024-03-23T11:34:04;2.70;;;2.50;;
335;SDS011;156;48.738;9.228;2024-03-23T11:36:32;4.45;;;4.15;;
335;SDS011;156;48.738;9.228;2024-03-23T11:38:58;2.53;;;2.33;;
335;SDS011;156;48.738;9.228;2024-03-23T11:41:24;8.15;;;5.85;;
335;SDS011;156;48.738;9.228;2024-03-23T11:43:50;3.22;;;3.05;;
335;SDS011;156;48.738;9.228;2024-03-23T11:46:21;3.30;;;3.10;;
335;SDS011;156;48.738;9.228;2024-03-23T11:48:51;2.60;;;2.40;;
335;SDS011;156;48.738;9.228;2024-03-23T11:51:18;3.00;;;2.80;;
335;SDS011;156;48.738;9.228;2024-03-23T11:53:45;5.50;;;2.72;;
335;SDS011;156;48.738;9.228;2024-03-23T11:56:12;2.70;;;2.50;;
335;SDS011;156;48.738;9.228;2024-03-23T11:58:38;2.38;;;2.17;;
335;SDS011;156;48.738;9.228;2024-03-23T12:01:05;3.15;;;2.95;;
335;SDS011;156;48.738;9.228;2024-03-23T12:03:35;3.30;;;2.40;;
335;SDS011;156;48.738;9.228;2024-03-23T12:06:04;1.40;;;1.30;;
335;SDS011;156;48.738;9.228;2024-03-23T12:08:32;1.35;;;1.25;;
335;SDS011;156;48.738;9.228;2024-03-23T12:11:06;1.60;;;1.55;;
335;SDS011;156;48.738;9.228;2024-03-23T12:13:33;1.58;;;1.40;;
335;SDS011;156;48.738;9.228;2024-03-23T12:16:08;2.10;;;1.95;;
335;SDS011;156;48.738;9.228;2024-03-23T12:18:35;3.83;;;2.00;;
335;SDS011;156;48.738;9.228;2024-03-23T12:21:04;5.18;;;2.20;;
335;SDS011;156;48.738;9.228;2024-03-23T12:23:33;6.65;;;1.90;;
335;SDS011;156;48.738;9.228;2024-03-23T12:26:01;1.20;;;1.10;;
335;SDS011;156;48.738;9.228;2024-03-23T12:28:27;1.05;;;0.95;;
335;SDS011;156;48.738;9.228;2024-03-23T12:30:54;1.48;;;1.38;;
335;SDS011;156;48.738;9.228;2024-03-23T12:33:23;2.35;;;1.83;;
335;SDS011;156;48.738;9.228;2024-03-23T12:35:53;1.48;;;1.38;;
335;SDS011;156;48.738;9.228;2024-03-23T12:38:20;1.70;;;1.45;;
335;SDS011;156;48.738;9.228;2024-03-23T12:40:47;1.73;;;1.63;;
335;SDS011;156;48.738;9.228;2024-03-23T12:43:13;1.13;;;1.02;;
335;SDS011;156;48.738;9.228;2024-03-23T12:45:40;4.47;;;2.33;;
335;SDS011;156;48.738;9.228;2024-03-23T12:48:07;3.33;;;1.70;;
335;SDS011;156;48.738;9.228;2024-03-23T12:50:34;10.63;;;2.65;;
335;SDS011;156;48.738;9.228;2024-03-23T12:53:00;2.00;;;1.50;;
335;SDS011;156;48.738;9.228;2024-03-23T12:55:31;3.90;;;1.98;;
335;SDS011;156;48.738;9.228;2024-03-23T12:57:57;3.53;;;2.55;;
335;SDS011;156;48.738;9.228;2024-03-23T13:00:24;1.30;;;1.20;;
335;SDS011;156;48.738;9.228;2024-03-23T13:02:50;2.43;;;2.20;;
335;SDS011;156;48.738;9.228;2024-03-23T13:05:16;5.32;;;1.55;;
335;SDS011;156;48.738;9.228;2024-03-23T13:07:42;3.72;;;1.90;;
335;SDS011;156;48.738;9.228;2024-03-23T13:10:09;0.93;;;0.82;;
335;SDS011;156;48.738;9.228;2024-03-23T13:12:38;5.13;;;2.33;;
335;SDS011;156;48.738;9.228;2024-03-23T13:15:05;2.60;;;2.28;;
335;SDS011;156;48.738;9.228;2024-03-23T13:17:33;2.90;;;1.48;;
335;SDS011;156;48.738;9.228;2024-03-23T13:20:00;3.63;;;1.55;;
335;SDS011;156;48.738;9.228;2024-03-23T13:22:33;3.35;;;1.60;;
335;SDS011;156;48.738;9.228;2024-03-23T13:24:59;1.63;;;1.48;;
335;SDS011;156;48.738;9.228;2024-03-23T13:27:26;5.57;;;1.63;;
335;SDS011;156;48.738;9.228;2024-03-23T13:29:55;2.75;;;2.55;;
335;SDS011;156;48.738;9.228;2024-03-23T13:32:20;2.10;;;1.83;;
335;SDS011;156;48.738;9.228;2024-03-23T13:34:47;2.53;;;1.52;;
335;SDS011;156;48.738;9.228;2024-03-23T13:37:15;3.35;;;1.25;;
335;SDS011;156;48.738;9.228;2024-03-23T13:39:42;3.17;;;1.20;;
335;SDS011;156;48.738;9.228;2024-03-23T13:42:08;0.90;;;0.70;;
335;SDS011;156;48.738;9.228;2024-03-23T13:44:37;0.70;;;0.40;;
335;SDS011;156;48.738;9.228;2024-03-23T13:47:05;0.60;;;0.60;;
335;SDS011;156;48.738;9.228;2024-03-23T13:49:32;0.80;;;0.70;;
335;SDS011;156;48.738;9.228;2024-03-23T13:51:58;2.83;;;1.00;;
335;SDS011;156;48.738;9.228;2024-03-23T13:54:25;2.05;;;0.85;;
335;SDS011;156;48.738;9.228;2024-03-23T13:56:52;3.92;;;1.30;;
335;SDS011;156;48.738;9.228;2024-03-23T13:59:22;0.77;;;0.70;;
335;SDS011;156;48.738;9.228;2024-03-23T14:01:49;0.85;;;0.77;;
335;SDS011;156;48.738;9.228;2024-03-23T14:04:18;1.50;;;0.70;;
335;SDS011;156;48.738;9.228;2024-03-23T14:06:45;5.00;;;1.02;;
335;SDS011;156;48.738;9.228;2024-03-23T14:09:12;3.40;;;1.45;;
335;SDS011;156;48.738;9.228;2024-03-23T14:11:39;2.58;;;1.35;;
335;SDS011;156;48.738;9.228;2024-03-23T14:14:06;4.72;;;2.22;;
335;SDS011;156;48.738;9.228;2024-03-23T14:16:33;0.50;;;0.40;;
335;SDS011;156;48.738;9.228;2024-03-23T14:19:00;3.65;;;1.73;;
335;SDS011;156;48.738;9.228;2024-03-23T14:21:27;4.40;;;1.52;;
335;SDS011;156;48.738;9.228;2024-03-23T14:23:54;2.40;;;1.48;;
335;SDS011;156;48.738;9.228;2024-03-23T14:26:20;2.05;;;1.15;;
335;SDS011;156;48.738;9.228;2024-03-23T14:28:48;2.22;;;1.30;;
335;SDS011;156;48.738;9.228;2024-03-23T14:31:15;0.90;;;0.80;;
335;SDS011;156;48.738;9.228;2024-03-23T14:33:42;0.70;;;0.50;;
335;SDS011;156;48.738;9.228;2024-03-23T14:36:11;0.70;;;0.60;;
335;SDS011;156;48.738;9.228;2024-03-23T14:38:40;0.95;;;0.50;;
335;SDS011;156;48.738;9.228;2024-03-23T14:41:06;0.60;;;0.50;;
335;SDS011;156;48.738;9.228;2024-03-23T14:43:33;3.50;;;2.25;;
335;SDS011;156;48.738;9.228;2024-03-23T14:46:08;0.90;;;0.47;;
335;SDS011;156;48.738;9.228;2024-03-23T14:48:37;0.60;;;0.50;;
335;SDS011;156;48.738;9.228;2024-03-23T14:51:03;1.77;;;0.85;;
335;SDS011;156;48.738;9.228;2024-03-23T14:53:31;2.65;;;1.92;;
335;SDS011;156;48.738;9.228;2024-03-23T14:55:59;2.00;;;1.38;;
335;SDS011;156;48.738;9.228;2024-03-23T14:58:26;2.55;;;1.75;;
335;SDS011;156;48.738;9.228;2024-03-23T15:00:59;1.67;;;1.30;;
335;SDS011;156;48.738;9.228;2024-03-23T15:03:27;3.80;;;1.15;;
335;SDS011;156;48.738;9.228;2024-03-23T15:05:53;0.70;;;0.50;;
335;SDS011;156;48.738;9.228;2024-03-23T15:08:21;3.17;;;1.55;;
335;SDS011;156;48.738;9.228;2024-03-23T15:10:47;1.50;;;1.40;;
335;SDS011;156;48.738;9.228;2024-03-23T15:13:15;1.50;;;1.40;;
335;SDS011;156;48.738;9.228;2024-03-23T15:15:41;2.10;;;1.30;;
335;SDS011;156;48.738;9.228;2024-03-23T15:18:10;1.63;;;1.52;;
335;SDS011;156;48.738;9.228;2024-03-23T15:20:37;2.53;;;2.00;;
335;SDS011;156;48.738;9.228;2024-03-23T15:23:04;1.60;;;1.50;;
335;SDS011;156;48.738;9.228;2024-03-23T15:25:30;1.43;;;1.33;;
335;SDS011;156;48.738;9.228;2024-03-23T15:27:57;1.85;;;1.70;;
335;SDS011;156;48.738;9.228;2024-03-23T15:30:26;2.38;;;1.50;;
335;SDS011;156;48.738;9.228;2024-03-23T15:32:54;0.70;;;0.70;;
335;SDS011;156;48.738;9.228;2024-03-23T15:35:20;1.13;;;0.80;;
335;SDS011;156;48.738;9.228;2024-03-23T15:37:54;1.00;;;0.93;;
335;SDS011;156;48.738;9.228;2024-03-23T15:40:20;1.30;;;1.13;;
335;SDS011;156;48.738;9.228;2024-03-23T15:42:47;1.00;;;0.90;;
335;SDS011;156;48.738;9.228;2024-03-23T15:45:17;1.17;;;0.73;;
335;SDS011;156;48.738;9.228;2024-03-23T15:47:45;1.38;;;1.20;;
335;SDS011;156;48.738;9.228;2024-03-23T15:50:11;1.63;;;1.55;;
335;SDS011;156;48.738;9.228;2024-03-23T15:52:38;0.90;;;0.60;;
335;SDS011;156;48.738;9.228;2024-03-23T15:55:04;2.13;;;1.17;;
335;SDS011;156;48.738;9.228;2024-03-23T15:57:32;0.70;;;0.50;;
335;SDS011;156;48.738;9.228;2024-03-23T15:59:59;0.50;;;0.40;;
335;SDS011;156;48.738;9.228;2024-03-23T16:02:26;0.60;;;0.50;;
335;SDS011;156;48.738;9.228;2024-03-23T16:04:56;0.50;;;0.40;;
335;SDS011;156;48.738;9.228;2024-03-23T16:07:28;5.10;;;0.82;;
335;SDS011;156;48.738;9.228;2024-03-23T16:09:53;2.10;;;1.10;;
335;SDS011;156;48.738;9.228;2024-03-23T16:12:21;1.80;;;0.70;;
335;SDS011;156;48.738;9.228;2024-03-23T16:14:47;1.88;;;0.70;;
335;SDS011;156;48.738;9.228;2024-03-23T16:17:14;1.17;;;0.80;;
335;SDS011;156;48.738;9.228;2024-03-23T16:19:43;0.50;;;0.30;;
335;SDS011;156;48.738;9.228;2024-03-23T16:22:10;0.50;;;0.30;;
335;SDS011;156;48.738;9.228;2024-03-23T16:24:37;0.50;;;0.30;;
335;SDS011;156;48.738;9.228;2024-03-23T16:27:03;0.50;;;0.40;;
335;SDS011;156;48.738;9.228;2024-03-23T16:29:33;0.60;;;0.50;;
335;SDS011;156;48.738;9.228;2024-03-23T16:31:59;13.35;;;1.05;;
335;SDS011;156;48.738;9.228;2024-03-23T16:34:28;0.60;;;0.47;;
335;SDS011;156;48.738;9.228;2024-03-23T16:36:54;1.75;;;0.50;;
335;SDS011;156;48.738;9.228;2024-03-23T16:39:23;0.40;;;0.30;;